AirNav   Pilot Hours Calculator
 
 855 users online  

83GA Brock Airpark
Bainbridge, Georgia, USA

GOING TO BAINBRIDGE?


FAA INFORMATION EFFECTIVE 07 NOVEMBER 2019

Location

FAA Identifier: 83GA
Lat/Long: 30-59-59.0000N 084-30-22.0000W
30-59.983333N 084-30.366667W
30.9997222,-84.5061111
(estimated)
Elevation: 130 ft. / 40 m (estimated)
Variation: 02W (1990)
From city: 5 miles N of BAINBRIDGE, GA
Time zone: UTC -5 (UTC -4 during Daylight Saving Time)
Zip code: 31717

Airport Operations

Airport use: Private use. Permission required prior to landing
Activation date: 08/1992
Control tower: no
ARTCC: JACKSONVILLE CENTER
FSS: MACON FLIGHT SERVICE STATION
Attendance: CONTINUOUS
Wind indicator: yes
Segmented circle: no

Airport Communications

UNICOM: 122.8
WX AWOS-3PT at BGE (7 nm W): 121.125 (229-248-2104)
WX AWOS-3T at CXU (19 nm NE): 118.675 (229-336-0744)
WX AWOS-3PT at 17J (19 nm W): 119.675 (229-524-0001)

Nearby radio navigation aids

VOR radial/distance  VOR name  Freq  Var
SZWr344/27.5SEMINOLE VORTAC117.5002E
MAIr068/34.3MARIANNA VORTAC114.0000E

 
NDB name  Hdg/Dist  Freq  Var  ID
WILLIS035/1.935904WLYZ .-.. -.-- --..
CAMILLA232/18.936905WCXU -.-. -..- ..-
CAIDY295/19.133804WCYR -.-. -.-- .-.
BLAAK153/31.734403WIWJ .. .-- .---
PATON279/35.024505WGTP --. - .--.
SOYYA080/37.832902WSMY ... -- -.--

Airport Services

Fuel available: 100LL

Runway Information

Runway 18/36

Dimensions: 3450 x 100 ft. / 1052 x 30 m
Surface: turf
RUNWAY 18  RUNWAY 36
Traffic pattern: leftleft
Obstructions: 15 ft. roadnone

Airport Ownership and Management from official FAA records

Ownership: Privately-owned
Owner: ADOLPH BROCK, JR
1239 LAKE DOUGLAS ROAD
BAINBRIDGE, GA 31717
Phone 912-246-8652
Manager: STEPHEN B. BROCK
RT 6 BOX 1456 ADOLPH BROCK RD
BAINBRIDGE, GA 31717

Airport Operational Statistics

Aircraft based on the field: 7
Single engine airplanes: 6
Multi engine airplanes: 1
    

Additional Remarks

FOR CD CTC TALLAHASSEE APCH AT 850-942-8311, WHEN APCH CLSD CTC JACKSONVILLE ARTCC AT 904-845-1592.

Instrument Procedures

There are no published instrument procedures at 83GA.

Some nearby airports with instrument procedures:

KBGE - Decatur County Industrial Air Park (7 nm W)
KCXU - Camilla-Mitchell County Airport (19 nm NE)
17J - Donalsonville Municipal Airport (19 nm W)
70J - Cairo-Grady County Airport (19 nm E)
2J9 - Quincy Municipal Airport (24 nm S)
 
Loc | Ops | Rwys | IFR | FBO | Links
Com | Nav | Svcs | Stats | Notes
Area around 83GA (Brock Airpark)
 
Road maps at: MapQuest Bing Google
 
Aerial photo
No photo
 
Sectional chart

 
Airport distance calculator
Flying to Brock Airpark? Find the distance to fly.

From to 83GA

Sunrise and sunset
Times for 21-Nov-2019
 Local
(UTC-5)
 Zulu
(UTC)
Morning civil twilight06:4511:45
Sunrise07:1112:11
Sunset17:3722:37
Evening civil twilight18:0323:03

Current date and time
Zulu (UTC)  22-Nov-2019 03:53:29
Local (UTC-5)  21-Nov-2019 22:53:29
 
METAR
KBGE 
7nm W 
220335Z AUTO 00000KT 10SM CLR 10/08 A3018 RMK AO2 T00960083
KCXU 
19nm NE 
220335Z AUTO 00000KT 10SM CLR 11/09 A3018 RMK AO1 T01050092
K17J 
19nm W 
220330Z AUTO 00000KT 10SM CLR 09/08 A3018 RMK AO2 T00930082
TAF
KABY 
36nm NE 
211745Z 2118/2218 16004KT P6SM SCT250 FM220000 22006KT P6SM SCT150 BKN250
KTLH 
37nm S 
211745Z 2118/2218 12008KT P6SM FEW250 FM220900 17005KT P6SM SCT150 BKN250
NOTAMs
Click for the latest NOTAMs
NOTAMs are issued by the DoD/FAA and will open in a separate window not controlled by AirNav.

 

 
 

Would you like to see your business listed on this page?

 If your business provides an interesting product or service to pilots, flight crews, aircraft, or users of the Brock Airpark, you should consider listing it here.  To start the listing process, click on the button below
 
Add a business
 

Other Pages about Brock Airpark

Update a link
 
Copyright © AirNav, LLC. All rights reserved. Privacy Policy  Contact